sensor_id;sensor_type;location;lat;lon;timestamp;P1;durP1;ratioP1;P2;durP2;ratioP2
23670;SDS011;12012;51.998;7.614;2022-10-16T00:02:05;11.18;;;8.15;;
23670;SDS011;12012;51.998;7.614;2022-10-16T00:04:30;14.10;;;8.20;;
23670;SDS011;12012;51.998;7.614;2022-10-16T00:06:56;11.85;;;7.38;;
23670;SDS011;12012;51.998;7.614;2022-10-16T00:09:21;9.85;;;7.28;;
23670;SDS011;12012;51.998;7.614;2022-10-16T00:11:47;14.55;;;8.93;;
23670;SDS011;12012;51.998;7.614;2022-10-16T00:14:13;15.68;;;8.68;;
23670;SDS011;12012;51.998;7.614;2022-10-16T00:16:39;10.80;;;7.10;;
23670;SDS011;12012;51.998;7.614;2022-10-16T00:19:05;16.48;;;9.10;;
23670;SDS011;12012;51.998;7.614;2022-10-16T00:21:32;12.30;;;8.93;;
23670;SDS011;12012;51.998;7.614;2022-10-16T00:23:59;14.18;;;8.98;;
23670;SDS011;12012;51.998;7.614;2022-10-16T00:26:28;14.77;;;7.93;;
23670;SDS011;12012;51.998;7.614;2022-10-16T00:28:55;15.07;;;8.20;;
23670;SDS011;12012;51.998;7.614;2022-10-16T00:31:21;16.00;;;8.90;;
23670;SDS011;12012;51.998;7.614;2022-10-16T00:33:48;14.32;;;7.40;;
23670;SDS011;12012;51.998;7.614;2022-10-16T00:36:15;12.40;;;8.02;;
23670;SDS011;12012;51.998;7.614;2022-10-16T00:38:43;11.82;;;7.85;;
23670;SDS011;12012;51.998;7.614;2022-10-16T00:41:10;14.32;;;7.80;;
23670;SDS011;12012;51.998;7.614;2022-10-16T00:43:48;14.88;;;9.52;;
23670;SDS011;12012;51.998;7.614;2022-10-16T00:46:21;11.82;;;7.13;;
23670;SDS011;12012;51.998;7.614;2022-10-16T00:51:43;13.80;;;8.45;;
23670;SDS011;12012;51.998;7.614;2022-10-16T00:54:13;11.98;;;8.75;;
23670;SDS011;12012;51.998;7.614;2022-10-16T00:56:42;15.75;;;8.95;;
23670;SDS011;12012;51.998;7.614;2022-10-16T00:59:14;13.30;;;9.45;;
23670;SDS011;12012;51.998;7.614;2022-10-16T01:01:45;12.65;;;8.63;;
23670;SDS011;12012;51.998;7.614;2022-10-16T01:04:10;15.30;;;9.45;;
23670;SDS011;12012;51.998;7.614;2022-10-16T01:06:43;16.50;;;9.90;;
23670;SDS011;12012;51.998;7.614;2022-10-16T01:09:17;14.68;;;9.52;;
23670;SDS011;12012;51.998;7.614;2022-10-16T01:14:54;14.43;;;8.55;;
23670;SDS011;12012;51.998;7.614;2022-10-16T01:17:39;10.32;;;6.75;;
23670;SDS011;12012;51.998;7.614;2022-10-16T01:20:26;11.73;;;7.88;;
23670;SDS011;12012;51.998;7.614;2022-10-16T01:28:17;14.38;;;10.07;;
23670;SDS011;12012;51.998;7.614;2022-10-16T01:30:46;8.77;;;6.43;;
23670;SDS011;12012;51.998;7.614;2022-10-16T01:33:17;15.65;;;8.27;;
23670;SDS011;12012;51.998;7.614;2022-10-16T01:36:00;7.05;;;6.05;;
23670;SDS011;12012;51.998;7.614;2022-10-16T01:38:34;11.15;;;7.18;;
23670;SDS011;12012;51.998;7.614;2022-10-16T01:41:08;10.85;;;7.20;;
23670;SDS011;12012;51.998;7.614;2022-10-16T01:43:53;13.55;;;7.38;;
23670;SDS011;12012;51.998;7.614;2022-10-16T01:48:51;9.95;;;7.15;;
23670;SDS011;12012;51.998;7.614;2022-10-16T01:51:17;13.18;;;8.85;;
23670;SDS011;12012;51.998;7.614;2022-10-16T01:53:47;15.05;;;8.40;;
23670;SDS011;12012;51.998;7.614;2022-10-16T01:56:17;10.43;;;7.03;;
23670;SDS011;12012;51.998;7.614;2022-10-16T01:58:48;9.05;;;6.07;;
23670;SDS011;12012;51.998;7.614;2022-10-16T02:03:46;12.55;;;7.57;;
23670;SDS011;12012;51.998;7.614;2022-10-16T02:06:16;11.90;;;7.47;;
23670;SDS011;12012;51.998;7.614;2022-10-16T02:08:42;10.48;;;6.82;;
23670;SDS011;12012;51.998;7.614;2022-10-16T02:11:09;11.23;;;6.53;;
23670;SDS011;12012;51.998;7.614;2022-10-16T02:16:01;9.68;;;6.43;;
23670;SDS011;12012;51.998;7.614;2022-10-16T02:18:27;9.07;;;6.43;;
23670;SDS011;12012;51.998;7.614;2022-10-16T02:20:59;16.40;;;9.70;;
23670;SDS011;12012;51.998;7.614;2022-10-16T02:26:29;10.52;;;6.30;;
23670;SDS011;12012;51.998;7.614;2022-10-16T02:29:01;14.60;;;8.00;;
23670;SDS011;12012;51.998;7.614;2022-10-16T02:31:31;13.23;;;7.50;;
23670;SDS011;12012;51.998;7.614;2022-10-16T02:33:59;16.08;;;8.77;;
23670;SDS011;12012;51.998;7.614;2022-10-16T02:36:26;11.18;;;6.70;;
23670;SDS011;12012;51.998;7.614;2022-10-16T02:38:53;14.45;;;7.35;;
23670;SDS011;12012;51.998;7.614;2022-10-16T02:41:20;11.00;;;8.77;;
23670;SDS011;12012;51.998;7.614;2022-10-16T02:43:46;12.10;;;7.93;;
23670;SDS011;12012;51.998;7.614;2022-10-16T02:46:12;11.85;;;7.10;;
23670;SDS011;12012;51.998;7.614;2022-10-16T02:48:37;14.40;;;6.43;;
23670;SDS011;12012;51.998;7.614;2022-10-16T02:51:04;15.02;;;7.68;;
23670;SDS011;12012;51.998;7.614;2022-10-16T02:53:29;10.63;;;7.03;;
23670;SDS011;12012;51.998;7.614;2022-10-16T02:55:55;11.43;;;7.60;;
23670;SDS011;12012;51.998;7.614;2022-10-16T02:58:21;9.73;;;6.60;;
23670;SDS011;12012;51.998;7.614;2022-10-16T03:00:46;10.38;;;6.72;;
23670;SDS011;12012;51.998;7.614;2022-10-16T03:03:12;8.70;;;5.55;;
23670;SDS011;12012;51.998;7.614;2022-10-16T03:05:37;10.98;;;7.57;;
23670;SDS011;12012;51.998;7.614;2022-10-16T03:08:03;11.80;;;5.50;;
23670;SDS011;12012;51.998;7.614;2022-10-16T03:10:29;8.50;;;6.38;;
23670;SDS011;12012;51.998;7.614;2022-10-16T03:12:55;9.40;;;6.28;;
23670;SDS011;12012;51.998;7.614;2022-10-16T03:15:20;9.65;;;6.85;;
23670;SDS011;12012;51.998;7.614;2022-10-16T03:17:46;8.15;;;6.10;;
23670;SDS011;12012;51.998;7.614;2022-10-16T03:20:12;10.90;;;7.28;;
23670;SDS011;12012;51.998;7.614;2022-10-16T03:22:37;7.55;;;5.80;;
23670;SDS011;12012;51.998;7.614;2022-10-16T03:25:03;9.43;;;6.05;;
23670;SDS011;12012;51.998;7.614;2022-10-16T03:27:29;9.60;;;6.60;;
23670;SDS011;12012;51.998;7.614;2022-10-16T03:29:54;10.73;;;7.22;;
23670;SDS011;12012;51.998;7.614;2022-10-16T03:32:20;8.50;;;6.38;;
23670;SDS011;12012;51.998;7.614;2022-10-16T03:34:46;10.82;;;6.57;;
23670;SDS011;12012;51.998;7.614;2022-10-16T03:37:12;8.55;;;6.43;;
23670;SDS011;12012;51.998;7.614;2022-10-16T03:39:37;7.93;;;6.03;;
23670;SDS011;12012;51.998;7.614;2022-10-16T03:42:03;12.43;;;6.15;;
23670;SDS011;12012;51.998;7.614;2022-10-16T03:44:28;10.27;;;6.25;;
23670;SDS011;12012;51.998;7.614;2022-10-16T03:46:54;7.95;;;4.72;;
23670;SDS011;12012;51.998;7.614;2022-10-16T03:49:19;7.28;;;5.53;;
23670;SDS011;12012;51.998;7.614;2022-10-16T03:51:45;8.35;;;5.97;;
23670;SDS011;12012;51.998;7.614;2022-10-16T03:54:11;12.50;;;6.00;;
23670;SDS011;12012;51.998;7.614;2022-10-16T03:56:36;7.97;;;4.72;;
23670;SDS011;12012;51.998;7.614;2022-10-16T03:59:02;10.35;;;5.20;;
23670;SDS011;12012;51.998;7.614;2022-10-16T04:01:28;9.80;;;5.40;;
23670;SDS011;12012;51.998;7.614;2022-10-16T04:03:54;7.15;;;5.05;;
23670;SDS011;12012;51.998;7.614;2022-10-16T04:06:19;6.97;;;4.72;;
23670;SDS011;12012;51.998;7.614;2022-10-16T04:08:45;8.82;;;5.13;;
23670;SDS011;12012;51.998;7.614;2022-10-16T04:11:10;7.72;;;4.88;;
23670;SDS011;12012;51.998;7.614;2022-10-16T04:13:36;7.32;;;4.82;;
23670;SDS011;12012;51.998;7.614;2022-10-16T04:16:01;6.95;;;3.92;;
23670;SDS011;12012;51.998;7.614;2022-10-16T04:18:27;4.57;;;3.70;;
23670;SDS011;12012;51.998;7.614;2022-10-16T04:20:54;6.95;;;4.78;;
23670;SDS011;12012;51.998;7.614;2022-10-16T04:23:19;6.93;;;4.53;;
23670;SDS011;12012;51.998;7.614;2022-10-16T04:25:45;7.30;;;4.22;;
23670;SDS011;12012;51.998;7.614;2022-10-16T04:28:12;5.63;;;4.40;;
23670;SDS011;12012;51.998;7.614;2022-10-16T04:30:38;5.18;;;4.53;;
23670;SDS011;12012;51.998;7.614;2022-10-16T04:33:04;6.85;;;4.40;;
23670;SDS011;12012;51.998;7.614;2022-10-16T04:35:29;7.97;;;5.53;;
23670;SDS011;12012;51.998;7.614;2022-10-16T04:37:56;7.57;;;4.63;;
23670;SDS011;12012;51.998;7.614;2022-10-16T04:40:22;5.50;;;4.10;;
23670;SDS011;12012;51.998;7.614;2022-10-16T04:42:48;7.22;;;4.28;;
23670;SDS011;12012;51.998;7.614;2022-10-16T04:45:14;5.72;;;4.63;;
23670;SDS011;12012;51.998;7.614;2022-10-16T04:47:39;9.00;;;5.40;;
23670;SDS011;12012;51.998;7.614;2022-10-16T04:50:05;7.10;;;5.40;;
23670;SDS011;12012;51.998;7.614;2022-10-16T04:52:31;5.60;;;4.75;;
23670;SDS011;12012;51.998;7.614;2022-10-16T04:54:57;6.72;;;4.43;;
23670;SDS011;12012;51.998;7.614;2022-10-16T04:57:26;7.28;;;3.80;;
23670;SDS011;12012;51.998;7.614;2022-10-16T04:59:52;6.00;;;4.40;;
23670;SDS011;12012;51.998;7.614;2022-10-16T05:02:17;6.38;;;4.60;;
23670;SDS011;12012;51.998;7.614;2022-10-16T05:04:43;6.90;;;4.75;;
23670;SDS011;12012;51.998;7.614;2022-10-16T05:07:09;6.45;;;5.22;;
23670;SDS011;12012;51.998;7.614;2022-10-16T05:09:34;6.78;;;4.18;;
23670;SDS011;12012;51.998;7.614;2022-10-16T05:12:00;5.18;;;4.10;;
23670;SDS011;12012;51.998;7.614;2022-10-16T05:14:25;6.50;;;3.63;;
23670;SDS011;12012;51.998;7.614;2022-10-16T05:16:51;7.78;;;4.03;;
23670;SDS011;12012;51.998;7.614;2022-10-16T05:19:17;4.93;;;3.78;;
23670;SDS011;12012;51.998;7.614;2022-10-16T05:21:42;5.72;;;3.67;;
23670;SDS011;12012;51.998;7.614;2022-10-16T05:24:08;4.35;;;3.67;;
23670;SDS011;12012;51.998;7.614;2022-10-16T05:26:34;4.75;;;3.45;;
23670;SDS011;12012;51.998;7.614;2022-10-16T05:28:59;4.65;;;3.30;;
23670;SDS011;12012;51.998;7.614;2022-10-16T05:31:25;4.95;;;3.50;;
23670;SDS011;12012;51.998;7.614;2022-10-16T05:33:51;4.72;;;3.38;;
23670;SDS011;12012;51.998;7.614;2022-10-16T05:36:16;6.38;;;3.63;;
23670;SDS011;12012;51.998;7.614;2022-10-16T05:38:43;5.80;;;3.40;;
23670;SDS011;12012;51.998;7.614;2022-10-16T05:41:08;5.32;;;3.35;;
23670;SDS011;12012;51.998;7.614;2022-10-16T05:43:34;3.47;;;3.13;;
23670;SDS011;12012;51.998;7.614;2022-10-16T05:46:01;4.72;;;3.05;;
23670;SDS011;12012;51.998;7.614;2022-10-16T05:48:30;3.50;;;3.20;;
23670;SDS011;12012;51.998;7.614;2022-10-16T05:51:00;4.65;;;2.95;;
23670;SDS011;12012;51.998;7.614;2022-10-16T05:53:28;4.55;;;3.30;;
23670;SDS011;12012;51.998;7.614;2022-10-16T05:55:55;5.65;;;4.10;;
23670;SDS011;12012;51.998;7.614;2022-10-16T05:58:21;4.22;;;3.05;;
23670;SDS011;12012;51.998;7.614;2022-10-16T06:00:57;8.18;;;3.25;;
23670;SDS011;12012;51.998;7.614;2022-10-16T06:03:27;6.20;;;3.05;;
23670;SDS011;12012;51.998;7.614;2022-10-16T06:05:53;3.78;;;3.35;;
23670;SDS011;12012;51.998;7.614;2022-10-16T06:08:19;6.00;;;3.38;;
23670;SDS011;12012;51.998;7.614;2022-10-16T06:10:46;4.05;;;3.08;;
23670;SDS011;12012;51.998;7.614;2022-10-16T06:13:12;4.97;;;2.65;;
23670;SDS011;12012;51.998;7.614;2022-10-16T06:15:39;5.55;;;2.70;;
23670;SDS011;12012;51.998;7.614;2022-10-16T06:18:06;5.70;;;3.33;;
23670;SDS011;12012;51.998;7.614;2022-10-16T06:20:33;5.72;;;3.10;;
23670;SDS011;12012;51.998;7.614;2022-10-16T06:22:59;6.50;;;3.10;;
23670;SDS011;12012;51.998;7.614;2022-10-16T06:25:24;7.32;;;3.65;;
23670;SDS011;12012;51.998;7.614;2022-10-16T06:27:50;4.93;;;3.60;;
23670;SDS011;12012;51.998;7.614;2022-10-16T06:30:15;5.18;;;3.80;;
23670;SDS011;12012;51.998;7.614;2022-10-16T06:32:41;5.20;;;3.30;;
23670;SDS011;12012;51.998;7.614;2022-10-16T06:35:06;4.30;;;2.97;;
23670;SDS011;12012;51.998;7.614;2022-10-16T06:37:32;4.57;;;3.10;;
23670;SDS011;12012;51.998;7.614;2022-10-16T06:39:58;3.50;;;2.90;;
23670;SDS011;12012;51.998;7.614;2022-10-16T06:42:25;6.63;;;2.92;;
23670;SDS011;12012;51.998;7.614;2022-10-16T06:44:50;3.75;;;2.90;;
23670;SDS011;12012;51.998;7.614;2022-10-16T06:47:16;15.60;;;3.53;;
23670;SDS011;12012;51.998;7.614;2022-10-16T06:49:41;4.63;;;3.10;;
23670;SDS011;12012;51.998;7.614;2022-10-16T06:52:07;5.10;;;2.85;;
23670;SDS011;12012;51.998;7.614;2022-10-16T06:54:32;4.35;;;3.20;;
23670;SDS011;12012;51.998;7.614;2022-10-16T06:56:58;3.75;;;3.28;;
23670;SDS011;12012;51.998;7.614;2022-10-16T06:59:24;4.88;;;3.28;;
23670;SDS011;12012;51.998;7.614;2022-10-16T07:01:50;5.35;;;3.15;;
23670;SDS011;12012;51.998;7.614;2022-10-16T07:04:16;5.32;;;2.67;;
23670;SDS011;12012;51.998;7.614;2022-10-16T07:06:41;4.95;;;2.90;;
23670;SDS011;12012;51.998;7.614;2022-10-16T07:09:08;5.13;;;2.97;;
23670;SDS011;12012;51.998;7.614;2022-10-16T07:11:36;4.32;;;2.60;;
23670;SDS011;12012;51.998;7.614;2022-10-16T07:14:02;3.55;;;2.80;;
23670;SDS011;12012;51.998;7.614;2022-10-16T07:16:30;2.90;;;2.47;;
23670;SDS011;12012;51.998;7.614;2022-10-16T07:18:57;3.22;;;2.55;;
23670;SDS011;12012;51.998;7.614;2022-10-16T07:21:25;5.57;;;3.30;;
23670;SDS011;12012;51.998;7.614;2022-10-16T07:23:57;5.68;;;3.17;;
23670;SDS011;12012;51.998;7.614;2022-10-16T07:26:25;4.13;;;2.90;;
23670;SDS011;12012;51.998;7.614;2022-10-16T07:28:51;4.18;;;2.72;;
23670;SDS011;12012;51.998;7.614;2022-10-16T07:31:17;4.28;;;2.95;;
23670;SDS011;12012;51.998;7.614;2022-10-16T07:33:44;3.60;;;3.10;;
23670;SDS011;12012;51.998;7.614;2022-10-16T07:36:12;6.20;;;2.75;;
23670;SDS011;12012;51.998;7.614;2022-10-16T07:38:37;5.25;;;2.55;;
23670;SDS011;12012;51.998;7.614;2022-10-16T07:41:04;5.32;;;2.85;;
23670;SDS011;12012;51.998;7.614;2022-10-16T07:43:34;5.75;;;2.72;;
23670;SDS011;12012;51.998;7.614;2022-10-16T07:46:00;2.85;;;2.25;;
23670;SDS011;12012;51.998;7.614;2022-10-16T07:48:27;4.70;;;2.58;;
23670;SDS011;12012;51.998;7.614;2022-10-16T07:50:58;3.65;;;2.60;;
23670;SDS011;12012;51.998;7.614;2022-10-16T07:53:25;3.85;;;2.75;;
23670;SDS011;12012;51.998;7.614;2022-10-16T07:55:51;3.13;;;2.58;;
23670;SDS011;12012;51.998;7.614;2022-10-16T07:58:16;4.35;;;2.30;;
23670;SDS011;12012;51.998;7.614;2022-10-16T08:00:42;3.10;;;2.05;;
23670;SDS011;12012;51.998;7.614;2022-10-16T08:03:08;3.00;;;2.20;;
23670;SDS011;12012;51.998;7.614;2022-10-16T08:05:33;3.38;;;2.15;;
23670;SDS011;12012;51.998;7.614;2022-10-16T08:07:59;3.13;;;2.20;;
23670;SDS011;12012;51.998;7.614;2022-10-16T08:10:27;4.60;;;1.90;;
23670;SDS011;12012;51.998;7.614;2022-10-16T08:12:53;3.00;;;2.00;;
23670;SDS011;12012;51.998;7.614;2022-10-16T08:15:19;3.80;;;2.03;;
23670;SDS011;12012;51.998;7.614;2022-10-16T08:17:53;3.70;;;2.03;;
23670;SDS011;12012;51.998;7.614;2022-10-16T08:20:20;4.25;;;2.17;;
23670;SDS011;12012;51.998;7.614;2022-10-16T08:22:45;3.58;;;2.10;;
23670;SDS011;12012;51.998;7.614;2022-10-16T08:25:11;3.83;;;2.42;;
23670;SDS011;12012;51.998;7.614;2022-10-16T08:27:37;3.70;;;2.28;;
23670;SDS011;12012;51.998;7.614;2022-10-16T08:30:02;3.90;;;1.80;;
23670;SDS011;12012;51.998;7.614;2022-10-16T08:32:28;3.65;;;1.95;;
23670;SDS011;12012;51.998;7.614;2022-10-16T08:34:53;4.95;;;2.30;;
23670;SDS011;12012;51.998;7.614;2022-10-16T08:37:20;4.10;;;2.13;;
23670;SDS011;12012;51.998;7.614;2022-10-16T08:39:45;4.07;;;1.90;;
23670;SDS011;12012;51.998;7.614;2022-10-16T08:50:26;5.43;;;2.33;;
23670;SDS011;12012;51.998;7.614;2022-10-16T08:52:54;3.40;;;1.95;;
23670;SDS011;12012;51.998;7.614;2022-10-16T08:57:46;3.85;;;1.70;;
23670;SDS011;12012;51.998;7.614;2022-10-16T09:00:12;3.05;;;1.75;;
23670;SDS011;12012;51.998;7.614;2022-10-16T09:02:49;2.15;;;1.58;;
23670;SDS011;12012;51.998;7.614;2022-10-16T09:13:48;3.25;;;1.70;;
23670;SDS011;12012;51.998;7.614;2022-10-16T09:21:36;6.97;;;1.88;;
23670;SDS011;12012;51.998;7.614;2022-10-16T09:24:13;4.68;;;1.77;;
23670;SDS011;12012;51.998;7.614;2022-10-16T09:26:41;4.45;;;1.85;;
23670;SDS011;12012;51.998;7.614;2022-10-16T09:29:08;4.43;;;1.70;;
23670;SDS011;12012;51.998;7.614;2022-10-16T09:31:40;3.45;;;1.63;;
23670;SDS011;12012;51.998;7.614;2022-10-16T09:34:08;8.48;;;2.08;;
23670;SDS011;12012;51.998;7.614;2022-10-16T09:36:50;6.15;;;1.70;;
23670;SDS011;12012;51.998;7.614;2022-10-16T09:39:16;3.92;;;1.50;;
23670;SDS011;12012;51.998;7.614;2022-10-16T09:41:42;5.15;;;1.73;;
23670;SDS011;12012;51.998;7.614;2022-10-16T09:44:17;4.60;;;1.52;;
23670;SDS011;12012;51.998;7.614;2022-10-16T09:47:00;5.22;;;1.50;;
23670;SDS011;12012;51.998;7.614;2022-10-16T09:49:27;2.67;;;1.30;;
23670;SDS011;12012;51.998;7.614;2022-10-16T09:52:12;4.78;;;1.65;;
23670;SDS011;12012;51.998;7.614;2022-10-16T09:54:49;5.20;;;1.48;;
23670;SDS011;12012;51.998;7.614;2022-10-16T09:57:14;7.72;;;1.48;;
23670;SDS011;12012;51.998;7.614;2022-10-16T09:59:50;5.80;;;1.58;;
23670;SDS011;12012;51.998;7.614;2022-10-16T10:02:23;4.00;;;1.33;;
23670;SDS011;12012;51.998;7.614;2022-10-16T10:05:00;7.68;;;1.50;;
23670;SDS011;12012;51.998;7.614;2022-10-16T10:07:28;5.95;;;1.27;;
23670;SDS011;12012;51.998;7.614;2022-10-16T10:10:01;3.58;;;1.30;;
23670;SDS011;12012;51.998;7.614;2022-10-16T10:12:28;6.78;;;1.70;;
23670;SDS011;12012;51.998;7.614;2022-10-16T10:14:58;4.68;;;2.00;;
23670;SDS011;12012;51.998;7.614;2022-10-16T10:17:29;6.32;;;2.50;;
23670;SDS011;12012;51.998;7.614;2022-10-16T10:19:55;5.38;;;2.40;;
23670;SDS011;12012;51.998;7.614;2022-10-16T10:22:27;7.05;;;2.92;;
23670;SDS011;12012;51.998;7.614;2022-10-16T10:25:42;6.80;;;3.60;;
23670;SDS011;12012;51.998;7.614;2022-10-16T10:30:36;6.93;;;3.33;;
23670;SDS011;12012;51.998;7.614;2022-10-16T10:39:08;5.82;;;2.70;;
23670;SDS011;12012;51.998;7.614;2022-10-16T10:44:38;2.75;;;1.92;;
23670;SDS011;12012;51.998;7.614;2022-10-16T10:59:09;2.45;;;1.35;;
23670;SDS011;12012;51.998;7.614;2022-10-16T11:06:59;2.72;;;1.25;;
23670;SDS011;12012;51.998;7.614;2022-10-16T11:09:32;4.03;;;1.25;;
23670;SDS011;12012;51.998;7.614;2022-10-16T11:22:36;3.15;;;1.20;;
23670;SDS011;12012;51.998;7.614;2022-10-16T11:27:56;3.10;;;1.20;;
23670;SDS011;12012;51.998;7.614;2022-10-16T11:30:59;2.55;;;1.15;;
23670;SDS011;12012;51.998;7.614;2022-10-16T11:33:44;2.85;;;1.00;;
23670;SDS011;12012;51.998;7.614;2022-10-16T11:36:15;2.72;;;1.05;;
23670;SDS011;12012;51.998;7.614;2022-10-16T11:38:55;6.68;;;1.10;;
23670;SDS011;12012;51.998;7.614;2022-10-16T11:44:27;3.15;;;0.90;;
23670;SDS011;12012;51.998;7.614;2022-10-16T11:49:30;2.83;;;0.90;;
23670;SDS011;12012;51.998;7.614;2022-10-16T11:55:16;3.80;;;1.10;;
23670;SDS011;12012;51.998;7.614;2022-10-16T11:57:29;6.40;;;1.08;;
23670;SDS011;12012;51.998;7.614;2022-10-16T12:08:23;3.45;;;1.38;;
23670;SDS011;12012;51.998;7.614;2022-10-16T12:10:49;3.38;;;1.05;;
23670;SDS011;12012;51.998;7.614;2022-10-16T12:13:31;3.40;;;1.08;;
23670;SDS011;12012;51.998;7.614;2022-10-16T12:16:07;5.50;;;1.20;;
23670;SDS011;12012;51.998;7.614;2022-10-16T12:18:46;3.45;;;1.20;;
23670;SDS011;12012;51.998;7.614;2022-10-16T12:21:13;3.03;;;0.85;;
23670;SDS011;12012;51.998;7.614;2022-10-16T12:23:53;3.20;;;1.13;;
23670;SDS011;12012;51.998;7.614;2022-10-16T12:26:31;4.75;;;1.10;;
23670;SDS011;12012;51.998;7.614;2022-10-16T12:29:22;2.78;;;1.17;;
23670;SDS011;12012;51.998;7.614;2022-10-16T12:31:48;5.43;;;1.17;;
23670;SDS011;12012;51.998;7.614;2022-10-16T12:37:08;5.38;;;1.40;;
23670;SDS011;12012;51.998;7.614;2022-10-16T12:39:34;7.75;;;1.35;;
23670;SDS011;12012;51.998;7.614;2022-10-16T12:42:03;2.10;;;0.82;;
23670;SDS011;12012;51.998;7.614;2022-10-16T12:44:34;2.80;;;1.00;;
23670;SDS011;12012;51.998;7.614;2022-10-16T12:47:00;3.90;;;1.20;;
23670;SDS011;12012;51.998;7.614;2022-10-16T12:49:36;3.00;;;1.02;;
23670;SDS011;12012;51.998;7.614;2022-10-16T12:52:03;2.47;;;1.00;;
23670;SDS011;12012;51.998;7.614;2022-10-16T13:04:52;3.25;;;1.00;;
23670;SDS011;12012;51.998;7.614;2022-10-16T13:07:53;4.68;;;1.30;;
23670;SDS011;12012;51.998;7.614;2022-10-16T13:10:40;3.17;;;1.05;;
23670;SDS011;12012;51.998;7.614;2022-10-16T13:13:32;3.35;;;1.08;;
23670;SDS011;12012;51.998;7.614;2022-10-16T13:19:00;5.13;;;1.10;;
23670;SDS011;12012;51.998;7.614;2022-10-16T13:24:36;2.67;;;1.08;;
23670;SDS011;12012;51.998;7.614;2022-10-16T13:27:32;5.90;;;1.10;;
23670;SDS011;12012;51.998;7.614;2022-10-16T13:30:18;4.85;;;1.20;;
23670;SDS011;12012;51.998;7.614;2022-10-16T13:32:47;2.08;;;1.00;;
23670;SDS011;12012;51.998;7.614;2022-10-16T13:35:18;2.13;;;0.95;;
23670;SDS011;12012;51.998;7.614;2022-10-16T13:38:02;3.08;;;1.20;;
23670;SDS011;12012;51.998;7.614;2022-10-16T13:40:47;4.57;;;1.35;;
23670;SDS011;12012;51.998;7.614;2022-10-16T13:43:13;3.03;;;1.00;;
23670;SDS011;12012;51.998;7.614;2022-10-16T13:45:39;2.13;;;1.00;;
23670;SDS011;12012;51.998;7.614;2022-10-16T13:48:05;3.47;;;1.20;;
23670;SDS011;12012;51.998;7.614;2022-10-16T13:50:34;2.47;;;0.77;;
23670;SDS011;12012;51.998;7.614;2022-10-16T13:53:04;2.03;;;0.80;;
23670;SDS011;12012;51.998;7.614;2022-10-16T13:55:37;1.30;;;0.82;;
23670;SDS011;12012;51.998;7.614;2022-10-16T13:58:12;4.80;;;1.20;;
23670;SDS011;12012;51.998;7.614;2022-10-16T14:00:39;3.40;;;1.00;;
23670;SDS011;12012;51.998;7.614;2022-10-16T14:03:17;2.50;;;0.85;;
23670;SDS011;12012;51.998;7.614;2022-10-16T14:05:55;4.05;;;0.77;;
23670;SDS011;12012;51.998;7.614;2022-10-16T14:08:26;6.70;;;1.30;;
23670;SDS011;12012;51.998;7.614;2022-10-16T14:10:54;5.40;;;1.10;;
23670;SDS011;12012;51.998;7.614;2022-10-16T14:15:59;2.65;;;0.98;;
23670;SDS011;12012;51.998;7.614;2022-10-16T14:18:31;1.77;;;1.00;;
23670;SDS011;12012;51.998;7.614;2022-10-16T14:21:02;3.15;;;1.10;;
23670;SDS011;12012;51.998;7.614;2022-10-16T14:23:36;3.15;;;1.10;;
23670;SDS011;12012;51.998;7.614;2022-10-16T14:28:35;2.00;;;0.90;;
23670;SDS011;12012;51.998;7.614;2022-10-16T14:31:03;3.63;;;0.85;;
23670;SDS011;12012;51.998;7.614;2022-10-16T14:33:49;4.13;;;1.20;;
23670;SDS011;12012;51.998;7.614;2022-10-16T14:36:15;4.95;;;1.17;;
23670;SDS011;12012;51.998;7.614;2022-10-16T14:39:05;3.55;;;0.98;;
23670;SDS011;12012;51.998;7.614;2022-10-16T14:41:31;2.58;;;1.20;;
23670;SDS011;12012;51.998;7.614;2022-10-16T14:44:05;4.22;;;1.45;;
23670;SDS011;12012;51.998;7.614;2022-10-16T14:46:34;5.18;;;1.33;;
23670;SDS011;12012;51.998;7.614;2022-10-16T14:51:34;3.88;;;1.50;;
23670;SDS011;12012;51.998;7.614;2022-10-16T14:53:59;2.47;;;1.30;;
23670;SDS011;12012;51.998;7.614;2022-10-16T14:56:29;3.67;;;1.20;;
23670;SDS011;12012;51.998;7.614;2022-10-16T14:58:57;3.55;;;1.00;;
23670;SDS011;12012;51.998;7.614;2022-10-16T15:01:23;8.70;;;1.85;;
23670;SDS011;12012;51.998;7.614;2022-10-16T15:03:49;4.05;;;1.50;;
23670;SDS011;12012;51.998;7.614;2022-10-16T15:06:15;5.38;;;1.48;;
23670;SDS011;12012;51.998;7.614;2022-10-16T15:08:41;3.15;;;1.30;;
23670;SDS011;12012;51.998;7.614;2022-10-16T15:11:11;3.53;;;1.30;;
23670;SDS011;12012;51.998;7.614;2022-10-16T15:13:39;5.05;;;1.45;;
23670;SDS011;12012;51.998;7.614;2022-10-16T15:16:04;4.70;;;1.40;;
23670;SDS011;12012;51.998;7.614;2022-10-16T15:18:33;3.60;;;1.20;;
23670;SDS011;12012;51.998;7.614;2022-10-16T15:20:58;6.07;;;1.50;;
23670;SDS011;12012;51.998;7.614;2022-10-16T15:23:24;3.63;;;1.38;;
23670;SDS011;12012;51.998;7.614;2022-10-16T15:25:51;2.92;;;1.23;;
23670;SDS011;12012;51.998;7.614;2022-10-16T15:28:18;3.10;;;1.30;;
23670;SDS011;12012;51.998;7.614;2022-10-16T15:30:45;5.18;;;1.88;;
23670;SDS011;12012;51.998;7.614;2022-10-16T15:33:15;2.67;;;1.50;;
23670;SDS011;12012;51.998;7.614;2022-10-16T15:35:57;5.40;;;1.67;;
23670;SDS011;12012;51.998;7.614;2022-10-16T15:38:23;2.72;;;1.33;;
23670;SDS011;12012;51.998;7.614;2022-10-16T15:40:50;3.50;;;1.48;;
23670;SDS011;12012;51.998;7.614;2022-10-16T15:43:16;3.15;;;1.60;;
23670;SDS011;12012;51.998;7.614;2022-10-16T15:45:41;3.20;;;1.40;;
23670;SDS011;12012;51.998;7.614;2022-10-16T15:48:10;4.32;;;1.52;;
23670;SDS011;12012;51.998;7.614;2022-10-16T15:50:38;4.38;;;1.90;;
23670;SDS011;12012;51.998;7.614;2022-10-16T15:53:04;1.98;;;1.50;;
23670;SDS011;12012;51.998;7.614;2022-10-16T15:55:29;2.03;;;1.38;;
23670;SDS011;12012;51.998;7.614;2022-10-16T15:57:55;4.18;;;2.42;;
23670;SDS011;12012;51.998;7.614;2022-10-16T16:00:20;5.28;;;2.05;;
23670;SDS011;12012;51.998;7.614;2022-10-16T16:02:50;2.60;;;1.70;;
23670;SDS011;12012;51.998;7.614;2022-10-16T16:05:17;4.45;;;1.90;;
23670;SDS011;12012;51.998;7.614;2022-10-16T16:07:43;3.42;;;1.70;;
23670;SDS011;12012;51.998;7.614;2022-10-16T16:10:10;4.18;;;1.75;;
23670;SDS011;12012;51.998;7.614;2022-10-16T16:12:36;3.38;;;1.60;;
23670;SDS011;12012;51.998;7.614;2022-10-16T16:15:03;3.63;;;1.63;;
23670;SDS011;12012;51.998;7.614;2022-10-16T16:17:30;3.10;;;1.60;;
23670;SDS011;12012;51.998;7.614;2022-10-16T16:19:56;2.60;;;1.50;;
23670;SDS011;12012;51.998;7.614;2022-10-16T16:22:22;2.40;;;1.30;;
23670;SDS011;12012;51.998;7.614;2022-10-16T16:24:47;3.50;;;1.95;;
23670;SDS011;12012;51.998;7.614;2022-10-16T16:27:13;2.58;;;1.52;;
23670;SDS011;12012;51.998;7.614;2022-10-16T16:29:38;2.63;;;1.70;;
23670;SDS011;12012;51.998;7.614;2022-10-16T16:32:04;4.15;;;1.55;;
23670;SDS011;12012;51.998;7.614;2022-10-16T16:34:30;4.75;;;1.80;;
23670;SDS011;12012;51.998;7.614;2022-10-16T16:36:56;3.25;;;1.70;;
23670;SDS011;12012;51.998;7.614;2022-10-16T16:39:22;7.88;;;2.17;;
23670;SDS011;12012;51.998;7.614;2022-10-16T16:41:48;5.53;;;2.15;;
23670;SDS011;12012;51.998;7.614;2022-10-16T16:44:14;2.80;;;1.50;;
23670;SDS011;12012;51.998;7.614;2022-10-16T16:46:40;4.10;;;1.58;;
23670;SDS011;12012;51.998;7.614;2022-10-16T16:49:08;4.57;;;1.70;;
23670;SDS011;12012;51.998;7.614;2022-10-16T16:51:35;3.17;;;1.58;;
23670;SDS011;12012;51.998;7.614;2022-10-16T16:54:01;3.35;;;1.85;;
23670;SDS011;12012;51.998;7.614;2022-10-16T16:56:27;4.78;;;1.85;;
23670;SDS011;12012;51.998;7.614;2022-10-16T16:58:53;8.13;;;2.85;;
23670;SDS011;12012;51.998;7.614;2022-10-16T17:01:21;6.80;;;2.60;;
23670;SDS011;12012;51.998;7.614;2022-10-16T17:03:49;7.15;;;3.60;;
23670;SDS011;12012;51.998;7.614;2022-10-16T17:06:17;9.55;;;3.78;;
23670;SDS011;12012;51.998;7.614;2022-10-16T17:08:44;5.82;;;3.63;;